Time;durP1;ratioP1;P1;durP2;ratioP2;P2;SDS_P1;SDS_P2;PMS_P1;PMS_P2;Temp;Humidity;BMP_temperature;BMP_pressure;BME280_temperature;BME280_humidity;BME280_pressure;Samples;Min_cycle;Max_cycle;Signal;HPM_P1;HPM_P2
2021/12/29 00:00:33;;;;;;;34.22;20.88;;;3.20;99.90;;;;;;2098187;28;20020;-70
2021/12/29 00:01:33;;;;;;;36.53;21.60;;;3.20;99.90;;;;;;2105560;28;20472;-69
2021/12/29 00:02:34;;;;;;;35.72;21.20;;;3.20;99.90;;;;;;2106507;28;20020;-70
2021/12/29 00:03:35;;;;;;;35.22;20.98;;;3.20;99.90;;;;;;2106673;28;20032;-69
2021/12/29 00:04:36;;;;;;;33.45;20.20;;;3.20;99.90;;;;;;2097523;28;20430;-70
2021/12/29 00:05:37;;;;;;;35.42;21.45;;;3.20;99.90;;;;;;2097736;28;20135;-69
2021/12/29 00:06:37;;;;;;;34.67;21.40;;;3.20;99.90;;;;;;2106547;28;20028;-70
2021/12/29 00:07:38;;;;;;;36.53;22.05;;;3.20;99.90;;;;;;2106617;28;20032;-69
2021/12/29 00:08:39;;;;;;;35.63;21.17;;;3.20;99.90;;;;;;2097459;28;20199;-69
2021/12/29 00:09:40;;;;;;;34.80;20.75;;;3.20;99.90;;;;;;2097579;28;20033;-69
2021/12/29 00:10:41;;;;;;;34.00;21.63;;;3.20;99.90;;;;;;2106699;28;20437;-69
2021/12/29 00:11:42;;;;;;;37.22;21.35;;;3.20;99.90;;;;;;2105841;28;20082;-68
2021/12/29 00:12:47;;;;;;;38.38;21.63;;;3.20;99.90;;;;;;2106633;28;20539;-69
2021/12/29 00:13:48;;;;;;;34.88;21.20;;;3.20;99.90;;;;;;2106679;28;20383;-69
2021/12/29 00:14:48;;;;;;;36.88;21.58;;;3.20;99.90;;;;;;2107069;28;20028;-69
2021/12/29 00:15:56;;;;;;;35.92;21.70;;;3.20;99.90;;;;;;2097694;28;20066;-69
2021/12/29 00:16:58;;;;;;;37.67;21.42;;;3.20;99.90;;;;;;2099251;28;20103;-69
2021/12/29 00:17:59;;;;;;;36.13;21.40;;;3.20;99.90;;;;;;2106501;28;20693;-69
2021/12/29 00:19:00;;;;;;;35.60;21.30;;;3.20;99.90;;;;;;2106433;28;20024;-69
2021/12/29 00:20:02;;;;;;;35.50;21.20;;;3.20;99.90;;;;;;2106422;28;20071;-69
2021/12/29 00:21:05;;;;;;;35.40;21.42;;;3.20;99.90;;;;;;2088631;28;20509;-69
2021/12/29 00:22:06;;;;;;;35.97;20.65;;;3.20;99.90;;;;;;2090137;28;20032;-70
2021/12/29 00:23:07;;;;;;;38.28;21.60;;;3.20;99.90;;;;;;2097768;28;20021;-69
2021/12/29 00:24:08;;;;;;;35.58;21.52;;;3.20;99.90;;;;;;2089225;28;20025;-70
2021/12/29 00:25:09;;;;;;;34.00;20.58;;;3.20;99.90;;;;;;2097462;28;20044;-70
2021/12/29 00:26:11;;;;;;;35.30;21.02;;;3.20;99.90;;;;;;2097500;28;20408;-70
2021/12/29 00:27:12;;;;;;;35.20;20.63;;;3.20;99.90;;;;;;2097604;28;20028;-71
2021/12/29 00:28:14;;;;;;;34.42;20.55;;;3.20;99.90;;;;;;2106409;28;20114;-69
2021/12/29 00:29:15;;;;;;;35.10;21.23;;;3.20;99.90;;;;;;2097263;28;20115;-68
2021/12/29 00:30:19;;;;;;;37.65;21.75;;;3.10;99.90;;;;;;2089482;28;20044;-70
2021/12/29 00:31:40;;;;;;;36.85;21.85;;;3.10;99.90;;;;;;2071388;28;20033;-70
2021/12/29 00:33:00;;;;;;;38.55;22.13;;;3.10;99.90;;;;;;2106635;28;20032;-70
2021/12/29 00:34:20;;;;;;;41.17;22.83;;;3.10;99.90;;;;;;2106210;28;20039;-70
2021/12/29 00:35:41;;;;;;;35.28;21.17;;;3.00;99.90;;;;;;2106403;28;20040;-71
2021/12/29 00:37:01;;;;;;;38.60;22.15;;;3.00;99.90;;;;;;2106665;28;20442;-68
2021/12/29 00:38:21;;;;;;;39.58;22.50;;;3.00;99.90;;;;;;2106402;28;20036;-69
2021/12/29 00:39:30;;;;;;;36.88;21.50;;;3.00;99.90;;;;;;2106478;28;20043;-69
2021/12/29 00:41:00;;;;;;;37.28;21.65;;;3.00;99.90;;;;;;2071516;28;20120;-72
2021/12/29 00:42:20;;;;;;;38.70;22.08;;;3.00;99.90;;;;;;2078020;28;20034;-71
2021/12/29 00:43:40;;;;;;;36.25;21.05;;;2.90;99.90;;;;;;2105993;28;20035;-71
2021/12/29 00:45:10;;;;;;;35.05;20.23;;;2.90;99.90;;;;;;2105993;28;20103;-70
2021/12/29 00:46:13;;;;;;;35.70;20.35;;;2.90;99.90;;;;;;2106337;28;20036;-71
2021/12/29 00:47:14;;;;;;;33.95;20.00;;;2.90;99.90;;;;;;2106212;28;20032;-70
2021/12/29 00:48:15;;;;;;;35.17;19.77;;;2.90;99.90;;;;;;2106159;28;20475;-71
2021/12/29 00:49:16;;;;;;;33.65;20.13;;;3.00;99.90;;;;;;2105688;28;20028;-71
2021/12/29 00:50:18;;;;;;;35.55;20.63;;;2.90;99.90;;;;;;2106270;28;20028;-71
2021/12/29 00:51:18;;;;;;;34.63;20.30;;;3.00;99.90;;;;;;2105768;28;20110;-71
2021/12/29 00:52:19;;;;;;;39.97;22.80;;;3.00;99.90;;;;;;2106073;28;20036;-71
2021/12/29 00:53:20;;;;;;;38.28;22.23;;;3.00;99.90;;;;;;2106383;28;20024;-71
2021/12/29 00:54:20;;;;;;;35.88;20.67;;;3.00;99.90;;;;;;2106229;28;20373;-71
2021/12/29 00:55:21;;;;;;;34.00;20.63;;;3.00;99.90;;;;;;2106015;28;20029;-71
2021/12/29 00:56:22;;;;;;;34.97;20.23;;;3.00;99.90;;;;;;2106194;28;20024;-70
2021/12/29 00:57:22;;;;;;;36.95;22.20;;;3.00;99.90;;;;;;2106130;28;20111;-70
2021/12/29 00:58:23;;;;;;;39.13;21.60;;;3.10;99.90;;;;;;2106226;28;20471;-71
2021/12/29 00:59:24;;;;;;;34.13;20.95;;;3.10;99.90;;;;;;2105993;28;20047;-70
2021/12/29 01:00:27;;;;;;;36.72;21.25;;;3.10;99.90;;;;;;2105900;28;20032;-70
2021/12/29 01:01:29;;;;;;;34.55;19.85;;;3.10;99.90;;;;;;2105446;28;20062;-70
2021/12/29 01:02:29;;;;;;;33.10;20.20;;;3.20;99.90;;;;;;2106093;28;20069;-70
2021/12/29 01:03:30;;;;;;;38.08;21.05;;;3.20;99.90;;;;;;2106123;28;20074;-71
2021/12/29 01:04:31;;;;;;;39.30;21.80;;;3.20;99.90;;;;;;2097119;28;20361;-71
2021/12/29 01:05:31;;;;;;;36.58;20.88;;;3.20;99.90;;;;;;2088669;28;20049;-70
2021/12/29 01:06:32;;;;;;;34.97;20.38;;;3.20;99.90;;;;;;2097049;28;20020;-71
2021/12/29 01:07:33;;;;;;;31.80;19.23;;;3.20;99.90;;;;;;2106053;28;20036;-71
2021/12/29 01:08:34;;;;;;;31.50;18.83;;;3.20;99.90;;;;;;2097007;28;20040;-71
2021/12/29 01:09:34;;;;;;;30.92;18.38;;;3.20;99.90;;;;;;2097055;28;20056;-70
2021/12/29 01:10:35;;;;;;;31.27;18.67;;;3.20;99.90;;;;;;2097006;28;20056;-71
2021/12/29 01:11:36;;;;;;;30.00;18.02;;;3.20;99.90;;;;;;2105138;28;20476;-71
2021/12/29 01:12:39;;;;;;;34.33;19.50;;;3.30;99.90;;;;;;2096835;28;20082;-71
2021/12/29 01:13:46;;;;;;;50.92;26.15;;;3.30;99.90;;;;;;2097351;28;20093;-70
2021/12/29 01:14:53;;;;;;;51.00;26.77;;;3.30;99.90;;;;;;2097151;28;20100;-71
2021/12/29 01:16:09;;;;;;;44.67;24.63;;;3.30;99.90;;;;;;2098172;28;20032;-69
2021/12/29 01:17:10;;;;;;;46.53;24.23;;;3.30;99.90;;;;;;2105951;28;20474;-70
2021/12/29 01:18:10;;;;;;;46.08;23.73;;;3.30;99.90;;;;;;2106070;28;20429;-71
2021/12/29 01:19:14;;;;;;;39.78;22.25;;;3.30;99.90;;;;;;2106081;28;20040;-71
2021/12/29 01:20:15;;;;;;;39.42;21.48;;;3.30;99.90;;;;;;2105961;28;20564;-70
2021/12/29 01:21:16;;;;;;;36.38;20.92;;;3.30;99.90;;;;;;2105579;28;20024;-71
2021/12/29 01:22:17;;;;;;;36.78;21.10;;;3.30;99.90;;;;;;2105577;28;20436;-70
2021/12/29 01:23:17;;;;;;;34.58;20.45;;;3.40;99.90;;;;;;2105803;28;20032;-71
2021/12/29 01:24:21;;;;;;;34.75;19.30;;;3.40;99.90;;;;;;2096897;28;20020;-71
2021/12/29 01:25:22;;;;;;;34.22;19.95;;;3.40;99.90;;;;;;2097445;28;20448;-70
2021/12/29 01:26:23;;;;;;;31.40;18.38;;;3.40;99.90;;;;;;2105918;28;20024;-74
2021/12/29 01:27:23;;;;;;;34.42;19.30;;;3.40;99.90;;;;;;2105890;28;20479;-71
2021/12/29 01:28:24;;;;;;;33.40;19.50;;;3.40;99.90;;;;;;2105970;28;20040;-71
2021/12/29 01:29:26;;;;;;;32.95;19.40;;;3.50;99.90;;;;;;2096924;28;20074;-71
2021/12/29 01:30:26;;;;;;;31.00;18.75;;;3.50;99.90;;;;;;2097099;28;20128;-70
2021/12/29 01:31:27;;;;;;;29.88;17.63;;;3.50;99.90;;;;;;2096159;28;20035;-71
2021/12/29 01:32:28;;;;;;;32.15;18.50;;;3.50;99.90;;;;;;2096861;28;20040;-70
2021/12/29 01:33:28;;;;;;;32.60;18.27;;;3.50;99.90;;;;;;2105876;28;20032;-71
2021/12/29 01:34:29;;;;;;;33.15;19.30;;;3.50;99.90;;;;;;2105651;28;20036;-70
2021/12/29 01:35:29;;;;;;;32.80;19.65;;;3.50;99.90;;;;;;2096831;28;20040;-70
2021/12/29 01:36:32;;;;;;;31.55;18.83;;;3.50;99.90;;;;;;2096946;28;20033;-71
2021/12/29 01:37:33;;;;;;;31.83;18.98;;;3.50;99.90;;;;;;2105777;28;20032;-68
2021/12/29 01:38:34;;;;;;;30.80;18.52;;;3.50;99.90;;;;;;2105840;28;20020;-72
2021/12/29 01:39:34;;;;;;;28.50;17.35;;;3.50;99.90;;;;;;2096959;28;20656;-69
2021/12/29 01:40:37;;;;;;;32.13;18.73;;;3.60;99.90;;;;;;2096790;28;20027;-69
2021/12/29 01:41:38;;;;;;;30.00;17.80;;;3.60;99.90;;;;;;2105066;28;20077;-70
2021/12/29 01:42:39;;;;;;;29.83;17.15;;;3.60;99.90;;;;;;2105488;28;20273;-69
2021/12/29 01:43:39;;;;;;;27.35;16.88;;;3.60;99.90;;;;;;2105824;28;20024;-69
2021/12/29 01:44:40;;;;;;;29.85;18.25;;;3.60;99.90;;;;;;2105789;28;20027;-72
2021/12/29 01:45:41;;;;;;;30.77;17.70;;;3.60;99.90;;;;;;2105869;28;20069;-70
2021/12/29 01:46:43;;;;;;;33.50;19.65;;;3.60;99.90;;;;;;2105729;28;20024;-68
2021/12/29 01:47:44;;;;;;;31.75;18.33;;;3.60;99.90;;;;;;2105743;28;20360;-70
2021/12/29 01:48:45;;;;;;;30.33;18.02;;;3.60;99.90;;;;;;2105793;28;20030;-70
2021/12/29 01:49:46;;;;;;;32.03;18.70;;;3.60;99.90;;;;;;2096774;28;20028;-68
2021/12/29 01:50:51;;;;;;;29.42;17.50;;;3.60;99.90;;;;;;2096711;28;20021;-67
2021/12/29 01:52:02;;;;;;;29.77;18.08;;;3.60;99.90;;;;;;2105474;28;20089;-68
2021/12/29 01:53:08;;;;;;;30.15;17.40;;;3.60;99.90;;;;;;2105803;28;20032;-70
2021/12/29 01:54:16;;;;;;;30.38;17.15;;;3.60;99.90;;;;;;2105782;28;20379;-69
2021/12/29 01:55:17;;;;;;;28.98;16.83;;;3.60;99.90;;;;;;2105763;28;20154;-69
2021/12/29 01:56:18;;;;;;;28.85;16.92;;;3.60;99.90;;;;;;2105757;28;20104;-70
2021/12/29 01:57:19;;;;;;;28.13;16.50;;;3.60;99.90;;;;;;2105808;28;20039;-70
2021/12/29 01:58:22;;;;;;;30.90;17.85;;;3.60;99.90;;;;;;2105602;28;20069;-72
2021/12/29 01:59:25;;;;;;;31.40;18.48;;;3.60;99.90;;;;;;2096697;28;20037;-70
2021/12/29 02:00:29;;;;;;;34.58;19.52;;;3.60;99.90;;;;;;2096245;28;20070;-70
2021/12/29 02:01:29;;;;;;;30.17;17.80;;;3.60;99.90;;;;;;2104788;28;20492;-70
2021/12/29 02:02:30;;;;;;;30.80;18.67;;;3.60;99.90;;;;;;2096746;28;20035;-69
2021/12/29 02:03:31;;;;;;;29.88;18.05;;;3.60;99.90;;;;;;2088204;28;20446;-69
2021/12/29 02:04:32;;;;;;;29.95;18.23;;;3.60;99.90;;;;;;2096613;28;20028;-70
2021/12/29 02:05:32;;;;;;;28.98;18.08;;;3.60;99.90;;;;;;2105591;28;20027;-70
2021/12/29 02:06:34;;;;;;;29.45;17.48;;;3.60;99.90;;;;;;2105532;28;20036;-70
2021/12/29 02:07:34;;;;;;;29.80;17.80;;;3.60;99.90;;;;;;2105317;28;20035;-69
2021/12/29 02:08:35;;;;;;;29.77;18.23;;;3.60;99.90;;;;;;2105655;28;20059;-70
2021/12/29 02:09:36;;;;;;;28.48;17.42;;;3.60;99.90;;;;;;2105447;28;20376;-70
2021/12/29 02:10:44;;;;;;;27.65;16.70;;;3.60;99.90;;;;;;2096587;28;20827;-69
2021/12/29 02:11:45;;;;;;;27.58;16.70;;;3.60;99.90;;;;;;2096627;28;20031;-70
2021/12/29 02:12:46;;;;;;;27.90;17.75;;;3.60;99.90;;;;;;2096581;28;20484;-70
2021/12/29 02:13:47;;;;;;;29.67;18.55;;;3.60;99.90;;;;;;2096555;28;20424;-69
2021/12/29 02:14:47;;;;;;;30.70;17.83;;;3.60;99.90;;;;;;2105331;28;20130;-70
2021/12/29 02:15:48;;;;;;;30.30;18.25;;;3.60;99.90;;;;;;2096741;28;20047;-70
2021/12/29 02:16:49;;;;;;;30.17;18.13;;;3.60;99.90;;;;;;2096457;28;20056;-69
2021/12/29 02:17:50;;;;;;;32.60;19.10;;;3.60;99.90;;;;;;2105573;28;20047;-70
2021/12/29 02:18:58;;;;;;;31.85;19.58;;;3.60;99.90;;;;;;2105452;28;20487;-68
2021/12/29 02:20:02;;;;;;;31.35;18.58;;;3.60;99.90;;;;;;2105272;28;20032;-70
2021/12/29 02:21:03;;;;;;;28.95;17.88;;;3.60;99.90;;;;;;2105126;28;20024;-70
2021/12/29 02:22:13;;;;;;;29.05;17.67;;;3.60;99.90;;;;;;2105772;28;20028;-70
2021/12/29 02:23:19;;;;;;;28.88;17.90;;;3.60;99.90;;;;;;2106673;28;20115;-71
2021/12/29 02:24:23;;;;;;;30.20;18.33;;;3.50;99.90;;;;;;2106466;28;20038;-71
2021/12/29 02:25:45;;;;;;;29.70;18.63;;;3.60;99.90;;;;;;2106113;28;20414;-71
2021/12/29 02:26:46;;;;;;;34.03;19.42;;;3.60;99.90;;;;;;2106049;28;20047;-71
2021/12/29 02:27:50;;;;;;;36.50;20.33;;;3.60;99.90;;;;;;2106213;28;20491;-70
2021/12/29 02:28:51;;;;;;;32.15;19.38;;;3.60;99.90;;;;;;2097512;28;20025;-71
2021/12/29 02:29:52;;;;;;;30.30;18.95;;;3.60;99.90;;;;;;2097393;28;20025;-70
2021/12/29 02:30:55;;;;;;;29.98;18.15;;;3.60;99.90;;;;;;2105362;28;20129;-70
2021/12/29 02:31:56;;;;;;;29.10;17.92;;;3.60;99.90;;;;;;2105365;28;20379;-70
2021/12/29 02:33:00;;;;;;;31.73;20.13;;;3.60;99.90;;;;;;2105552;28;20047;-70
2021/12/29 02:34:01;;;;;;;31.05;19.52;;;3.60;99.90;;;;;;2105278;28;20028;-69
2021/12/29 02:35:02;;;;;;;28.50;17.98;;;3.60;99.90;;;;;;2105331;28;20063;-70
2021/12/29 02:36:05;;;;;;;30.33;18.23;;;3.60;99.90;;;;;;2105273;28;20171;-70
2021/12/29 02:37:06;;;;;;;26.23;16.60;;;3.60;99.90;;;;;;2105318;28;20034;-70
2021/12/29 02:38:10;;;;;;;30.08;18.60;;;3.60;99.90;;;;;;2096264;28;20436;-70
2021/12/29 02:39:17;;;;;;;28.23;18.33;;;3.60;99.90;;;;;;2096878;28;20613;-69
2021/12/29 02:40:18;;;;;;;32.13;19.35;;;3.60;99.90;;;;;;2105302;28;20039;-70
2021/12/29 02:41:19;;;;;;;34.47;21.35;;;3.60;99.90;;;;;;2104787;28;20653;-70
2021/12/29 02:42:25;;;;;;;34.10;20.05;;;3.60;99.90;;;;;;2105199;28;20416;-70
2021/12/29 02:43:26;;;;;;;33.90;20.98;;;3.60;99.90;;;;;;2105039;28;20461;-69
2021/12/29 02:44:28;;;;;;;36.30;20.75;;;3.60;99.90;;;;;;2105654;28;20103;-71
2021/12/29 02:45:33;;;;;;;35.17;20.85;;;3.60;99.90;;;;;;2106168;28;20040;-68
2021/12/29 02:46:36;;;;;;;31.48;19.45;;;3.60;99.90;;;;;;2097290;28;20029;-71
2021/12/29 02:47:37;;;;;;;30.63;18.88;;;3.60;99.90;;;;;;2097428;28;20032;-70
2021/12/29 02:48:42;;;;;;;31.02;19.27;;;3.60;99.90;;;;;;2105786;28;20032;-70
2021/12/29 02:49:42;;;;;;;31.92;19.42;;;3.70;99.90;;;;;;2106272;28;20047;-70
2021/12/29 02:50:45;;;;;;;30.30;19.50;;;3.70;99.90;;;;;;2106590;28;20285;-71
2021/12/29 02:51:47;;;;;;;30.85;18.55;;;3.70;99.90;;;;;;2105585;28;20040;-70
2021/12/29 02:52:48;;;;;;;28.88;18.00;;;3.70;99.90;;;;;;2105989;28;20023;-69
2021/12/29 02:53:49;;;;;;;27.80;17.88;;;3.70;99.90;;;;;;2106056;28;20023;-70
2021/12/29 02:54:54;;;;;;;29.77;18.55;;;3.70;99.90;;;;;;2105802;28;20073;-69
2021/12/29 02:55:55;;;;;;;28.13;17.70;;;3.70;99.90;;;;;;2105442;28;20023;-70
2021/12/29 02:56:55;;;;;;;26.73;17.48;;;3.70;99.90;;;;;;2105879;28;20028;-70
2021/12/29 02:57:56;;;;;;;29.13;18.13;;;3.70;99.90;;;;;;2105774;28;20036;-69
2021/12/29 02:58:57;;;;;;;30.08;18.60;;;3.70;99.90;;;;;;2105878;28;20028;-70
2021/12/29 02:59:58;;;;;;;34.42;20.83;;;3.70;99.90;;;;;;2105583;28;20408;-69
2021/12/29 03:01:01;;;;;;;33.97;20.52;;;3.70;99.90;;;;;;2104849;28;20043;-69
2021/12/29 03:02:02;;;;;;;31.52;19.10;;;3.70;99.90;;;;;;2104960;28;20020;-68
2021/12/29 03:03:16;;;;;;;28.10;17.65;;;3.70;99.90;;;;;;2105320;28;20047;-69
2021/12/29 03:04:17;;;;;;;31.63;19.70;;;3.70;99.90;;;;;;2096312;28;20025;-68
2021/12/29 03:05:20;;;;;;;31.63;19.45;;;3.80;99.90;;;;;;2096434;28;20032;-68
2021/12/29 03:06:20;;;;;;;30.02;18.98;;;3.70;99.90;;;;;;2105288;28;20016;-69
2021/12/29 03:07:21;;;;;;;28.67;18.77;;;3.80;99.90;;;;;;2096139;28;20052;-70
2021/12/29 03:08:23;;;;;;;30.60;19.10;;;3.80;99.90;;;;;;2096319;28;20028;-69
2021/12/29 03:09:23;;;;;;;29.33;18.90;;;3.80;99.90;;;;;;2096356;28;20071;-70
2021/12/29 03:10:24;;;;;;;30.42;18.77;;;3.80;99.90;;;;;;2096087;28;20063;-68
2021/12/29 03:11:25;;;;;;;29.98;18.23;;;3.80;99.90;;;;;;2104430;28;20059;-67
2021/12/29 03:12:25;;;;;;;34.05;20.02;;;3.80;99.90;;;;;;2096087;28;20025;-70
2021/12/29 03:13:32;;;;;;;32.10;20.10;;;3.80;99.90;;;;;;2096475;28;20036;-69
2021/12/29 03:14:33;;;;;;;31.90;20.23;;;3.80;99.90;;;;;;2105438;28;20031;-68
2021/12/29 03:15:35;;;;;;;37.00;21.65;;;3.80;99.90;;;;;;2096323;28;20036;-70
2021/12/29 03:16:37;;;;;;;31.92;20.77;;;3.80;99.90;;;;;;2096675;28;20037;-70
2021/12/29 03:17:38;;;;;;;33.60;21.08;;;3.80;99.90;;;;;;2096326;28;20021;-70
2021/12/29 03:18:38;;;;;;;32.58;20.80;;;3.80;99.90;;;;;;2096594;28;20059;-70
2021/12/29 03:19:39;;;;;;;31.52;19.92;;;3.80;99.90;;;;;;2105483;28;20036;-69
2021/12/29 03:20:39;;;;;;;32.08;19.83;;;3.80;99.90;;;;;;2105257;28;20502;-69
2021/12/29 03:21:40;;;;;;;30.63;19.85;;;3.80;99.90;;;;;;2104663;28;20016;-70
2021/12/29 03:22:41;;;;;;;34.45;20.75;;;3.80;99.90;;;;;;2096308;28;20484;-69
2021/12/29 03:23:42;;;;;;;34.80;21.10;;;3.80;99.90;;;;;;2096475;28;20048;-70
2021/12/29 03:24:42;;;;;;;33.80;20.45;;;3.80;99.90;;;;;;2105318;28;20027;-70
2021/12/29 03:25:44;;;;;;;30.85;19.70;;;3.80;99.90;;;;;;2105524;28;20040;-69
2021/12/29 03:26:45;;;;;;;29.95;19.25;;;3.80;99.90;;;;;;2105458;28;20027;-70
2021/12/29 03:27:45;;;;;;;32.75;20.83;;;3.80;99.90;;;;;;2105313;28;20111;-70
2021/12/29 03:28:46;;;;;;;34.53;21.17;;;3.80;99.90;;;;;;2105491;28;20498;-69
2021/12/29 03:29:47;;;;;;;32.78;21.42;;;3.80;99.90;;;;;;2105403;28;20074;-71
2021/12/29 03:30:52;;;;;;;36.35;22.45;;;3.80;99.90;;;;;;2104817;28;20540;-71
2021/12/29 03:31:52;;;;;;;35.85;21.42;;;3.80;99.90;;;;;;2095907;28;20023;-71
2021/12/29 03:33:02;;;;;;;33.42;20.98;;;3.80;99.90;;;;;;2096303;28;20036;-70
2021/12/29 03:34:04;;;;;;;36.00;22.08;;;3.80;99.90;;;;;;2105112;28;20055;-71
2021/12/29 03:35:05;;;;;;;37.25;22.20;;;3.80;99.90;;;;;;2105255;28;20418;-69
2021/12/29 03:36:06;;;;;;;34.97;22.00;;;3.70;99.90;;;;;;2105215;28;20031;-69
2021/12/29 03:37:07;;;;;;;33.85;20.98;;;3.70;99.90;;;;;;2105028;28;20669;-70
2021/12/29 03:38:14;;;;;;;32.65;20.90;;;3.70;99.90;;;;;;2105005;28;20016;-69
2021/12/29 03:39:15;;;;;;;36.85;22.23;;;3.70;99.90;;;;;;2105196;28;20046;-68
2021/12/29 03:40:16;;;;;;;34.97;21.75;;;3.70;99.90;;;;;;2104985;28;20031;-70
2021/12/29 03:41:18;;;;;;;36.58;22.13;;;3.70;99.90;;;;;;2104746;28;20039;-69
2021/12/29 03:42:18;;;;;;;36.38;22.17;;;3.70;99.90;;;;;;2104844;28;20031;-69
2021/12/29 03:43:19;;;;;;;35.80;22.00;;;3.70;99.90;;;;;;2105146;28;20082;-70
2021/12/29 03:44:20;;;;;;;33.08;21.90;;;3.70;99.90;;;;;;2096032;28;20033;-70
2021/12/29 03:45:20;;;;;;;33.33;20.67;;;3.70;99.90;;;;;;2096091;28;20090;-70
2021/12/29 03:46:23;;;;;;;39.90;22.77;;;3.70;99.90;;;;;;2105023;28;20028;-71
2021/12/29 03:47:24;;;;;;;34.85;21.25;;;3.70;99.90;;;;;;2105150;28;20506;-71
2021/12/29 03:48:27;;;;;;;37.88;21.17;;;3.70;99.90;;;;;;2096235;28;20128;-70
2021/12/29 03:49:27;;;;;;;36.30;22.33;;;3.70;99.90;;;;;;2096456;28;20096;-69
2021/12/29 03:50:28;;;;;;;38.70;22.55;;;3.70;99.90;;;;;;2096288;28;20028;-69
2021/12/29 03:51:28;;;;;;;33.83;21.33;;;3.70;99.90;;;;;;2095481;28;20028;-71
2021/12/29 03:52:29;;;;;;;39.45;23.05;;;3.70;99.90;;;;;;2105099;28;20035;-70
2021/12/29 03:53:30;;;;;;;37.33;22.70;;;3.70;99.90;;;;;;2105094;28;20036;-69
2021/12/29 03:54:30;;;;;;;38.03;22.67;;;3.70;99.90;;;;;;2104764;28;20399;-70
2021/12/29 03:55:31;;;;;;;34.38;21.35;;;3.60;99.90;;;;;;2105096;28;20031;-69
2021/12/29 03:56:32;;;;;;;34.30;21.30;;;3.60;99.90;;;;;;2105096;28;20111;-68
2021/12/29 03:57:34;;;;;;;35.22;21.33;;;3.60;99.90;;;;;;2105005;28;20103;-69
2021/12/29 03:58:34;;;;;;;38.38;22.27;;;3.70;99.90;;;;;;2105120;28;20771;-70
2021/12/29 03:59:35;;;;;;;35.65;22.30;;;3.60;99.90;;;;;;2104928;28;20082;-68
2021/12/29 04:00:36;;;;;;;37.65;23.23;;;3.60;99.90;;;;;;2095979;28;20031;-68
2021/12/29 04:01:37;;;;;;;40.20;23.83;;;3.60;99.90;;;;;;2095282;28;20040;-68
2021/12/29 04:02:38;;;;;;;35.65;22.25;;;3.60;99.90;;;;;;2105021;28;20495;-71
2021/12/29 04:03:45;;;;;;;36.53;22.13;;;3.60;99.90;;;;;;2095939;28;20496;-71
2021/12/29 04:04:46;;;;;;;37.85;22.35;;;3.60;99.90;;;;;;2096878;28;20040;-69
2021/12/29 04:05:47;;;;;;;36.85;22.83;;;3.60;99.90;;;;;;2104942;28;20016;-68
2021/12/29 04:06:48;;;;;;;37.67;22.38;;;3.60;99.90;;;;;;2105077;28;20040;-70
2021/12/29 04:07:52;;;;;;;34.83;21.58;;;3.60;99.90;;;;;;2104843;28;20032;-69
2021/12/29 04:08:53;;;;;;;32.85;20.30;;;3.60;99.90;;;;;;2105003;28;20043;-69
2021/12/29 04:09:53;;;;;;;32.08;20.30;;;3.60;99.90;;;;;;2104969;28;20495;-69
2021/12/29 04:10:54;;;;;;;36.38;21.90;;;3.70;99.90;;;;;;2095525;28;20516;-67
2021/12/29 04:11:55;;;;;;;35.38;22.35;;;3.70;99.90;;;;;;2095998;28;20091;-70
2021/12/29 04:12:56;;;;;;;38.88;22.92;;;3.70;99.90;;;;;;2105008;28;20086;-70
2021/12/29 04:13:57;;;;;;;37.33;23.33;;;3.60;99.90;;;;;;2096069;28;20488;-70
2021/12/29 04:14:57;;;;;;;34.17;22.02;;;3.60;99.90;;;;;;2096230;28;20042;-70
2021/12/29 04:15:58;;;;;;;36.10;21.83;;;3.70;99.90;;;;;;2104912;28;20032;-68
2021/12/29 04:17:08;;;;;;;33.60;21.15;;;3.70;99.90;;;;;;2105100;28;20032;-70
2021/12/29 04:18:15;;;;;;;33.47;20.40;;;3.70;99.90;;;;;;2105162;28;20597;-69
2021/12/29 04:19:28;;;;;;;31.15;19.63;;;3.70;99.90;;;;;;2105124;28;20035;-70
2021/12/29 04:21:52;;;;;;;29.90;18.45;;;3.70;99.90;;;;;;2099126;28;20491;-71
2021/12/29 04:22:53;;;;;;;29.83;18.15;;;3.70;99.90;;;;;;2105069;28;20123;-69
2021/12/29 04:23:54;;;;;;;29.38;18.65;;;3.70;99.90;;;;;;2105335;28;20118;-70
2021/12/29 04:24:55;;;;;;;30.05;18.52;;;3.70;99.90;;;;;;2106404;28;20028;-68
2021/12/29 04:25:57;;;;;;;27.95;17.83;;;3.70;99.90;;;;;;2106268;28;20019;-69
2021/12/29 04:26:58;;;;;;;26.73;17.10;;;3.70;99.90;;;;;;2106443;28;20024;-70
2021/12/29 04:27:58;;;;;;;28.98;18.42;;;3.80;99.90;;;;;;2106418;28;20127;-70
2021/12/29 04:28:59;;;;;;;28.63;18.23;;;3.80;99.90;;;;;;2106519;28;20020;-70
2021/12/29 04:29:59;;;;;;;34.20;21.38;;;3.80;99.90;;;;;;2106396;28;20060;-70
2021/12/29 04:31:06;;;;;;;35.40;21.90;;;3.80;99.90;;;;;;2105675;28;20028;-70
2021/12/29 04:32:07;;;;;;;34.95;22.35;;;3.70;99.90;;;;;;2106123;28;20028;-69
2021/12/29 04:33:08;;;;;;;36.80;22.73;;;3.70;99.90;;;;;;2106248;28;20051;-70
2021/12/29 04:34:10;;;;;;;34.40;21.20;;;3.70;99.90;;;;;;2106434;28;20024;-71
2021/12/29 04:35:11;;;;;;;31.98;20.67;;;3.70;99.90;;;;;;2106836;28;20046;-69
2021/12/29 04:36:11;;;;;;;30.83;20.05;;;3.70;99.90;;;;;;2106412;28;20036;-69
2021/12/29 04:37:12;;;;;;;31.15;19.58;;;3.80;99.90;;;;;;2106425;28;20032;-71
2021/12/29 04:38:13;;;;;;;31.70;20.75;;;3.80;99.90;;;;;;2106505;28;20039;-70
2021/12/29 04:39:13;;;;;;;31.35;20.13;;;3.80;99.90;;;;;;2106451;28;20530;-69
2021/12/29 04:40:14;;;;;;;30.33;19.08;;;3.80;99.90;;;;;;2106561;28;20489;-70
2021/12/29 04:41:14;;;;;;;32.47;20.17;;;3.80;99.90;;;;;;2105936;28;20024;-69
2021/12/29 04:42:15;;;;;;;35.28;21.60;;;3.80;99.90;;;;;;2106049;28;20157;-71
2021/12/29 04:43:17;;;;;;;31.08;20.17;;;3.80;99.90;;;;;;2106528;28;20106;-72
2021/12/29 04:44:18;;;;;;;32.55;20.83;;;3.80;99.90;;;;;;2106483;28;20024;-69
2021/12/29 04:45:19;;;;;;;34.72;21.35;;;3.80;99.90;;;;;;2106471;28;20035;-69
2021/12/29 04:46:27;;;;;;;32.00;20.33;;;3.80;99.90;;;;;;2106453;28;20063;-68
2021/12/29 04:47:29;;;;;;;32.70;21.27;;;3.80;99.90;;;;;;2106400;28;20663;-68
2021/12/29 04:48:37;;;;;;;33.35;21.08;;;3.80;99.90;;;;;;2106457;28;20556;-68
2021/12/29 04:49:43;;;;;;;33.38;21.05;;;3.80;99.90;;;;;;2106496;28;20019;-68
2021/12/29 04:50:52;;;;;;;35.25;22.13;;;3.80;99.90;;;;;;2106638;28;20040;-69
2021/12/29 04:52:03;;;;;;;33.38;20.83;;;3.70;99.90;;;;;;2106415;28;20028;-69
2021/12/29 04:53:06;;;;;;;34.15;20.80;;;3.70;99.90;;;;;;2106550;28;20072;-70
2021/12/29 04:54:07;;;;;;;33.13;20.08;;;3.70;99.90;;;;;;2106366;28;20044;-70
2021/12/29 04:55:09;;;;;;;30.58;19.13;;;3.70;99.90;;;;;;2106585;28;20592;-70
2021/12/29 04:56:10;;;;;;;30.70;19.27;;;3.70;99.90;;;;;;2089136;28;20048;-69
2021/12/29 04:57:10;;;;;;;29.77;18.77;;;3.80;99.90;;;;;;2089019;28;20071;-70
2021/12/29 04:58:12;;;;;;;27.55;18.00;;;3.80;99.90;;;;;;2106413;28;20125;-70
2021/12/29 04:59:15;;;;;;;33.90;21.67;;;3.80;99.90;;;;;;2097373;28;20122;-70
2021/12/29 05:00:18;;;;;;;37.22;22.75;;;3.80;99.90;;;;;;2097797;28;20495;-70
2021/12/29 05:01:19;;;;;;;34.97;21.45;;;3.80;99.90;;;;;;2106050;28;20028;-70
2021/12/29 05:02:19;;;;;;;32.45;20.60;;;3.80;99.90;;;;;;2106271;28;20024;-70
2021/12/29 05:03:20;;;;;;;30.95;19.65;;;3.80;99.90;;;;;;2106377;28;20027;-70
2021/12/29 05:04:29;;;;;;;30.90;19.85;;;3.80;99.90;;;;;;2106584;28;20024;-70
2021/12/29 05:09:13;;;;;;;29.30;18.50;;;3.80;99.90;;;;;;2106218;28;20098;-70
2021/12/29 05:10:14;;;;;;;32.85;20.80;;;3.80;99.90;;;;;;2106120;28;20111;-70
2021/12/29 05:11:15;;;;;;;30.58;19.85;;;3.80;99.90;;;;;;2105782;28;20464;-70
2021/12/29 05:12:16;;;;;;;31.02;19.33;;;3.80;99.90;;;;;;2097143;28;20029;-70
2021/12/29 05:13:17;;;;;;;29.95;18.90;;;3.80;99.90;;;;;;2088974;28;20079;-70
2021/12/29 05:14:17;;;;;;;30.02;19.23;;;3.80;99.90;;;;;;2097371;28;20020;-70
2021/12/29 05:15:18;;;;;;;29.50;18.98;;;3.80;99.90;;;;;;2106139;28;20032;-70
2021/12/29 05:16:18;;;;;;;29.40;18.67;;;3.80;99.90;;;;;;2106047;28;20115;-70
2021/12/29 05:17:19;;;;;;;37.83;23.85;;;3.80;99.90;;;;;;2106275;28;20029;-71
2021/12/29 05:18:19;;;;;;;33.63;23.30;;;3.80;99.90;;;;;;2106241;28;20020;-70
2021/12/29 05:19:20;;;;;;;36.90;22.90;;;3.80;99.90;;;;;;2106085;28;20032;-69
2021/12/29 05:20:21;;;;;;;35.65;23.00;;;3.80;99.90;;;;;;2106038;28;20028;-70
2021/12/29 05:21:25;;;;;;;32.85;21.35;;;3.80;99.90;;;;;;2105531;28;20062;-69
2021/12/29 05:22:25;;;;;;;31.67;20.73;;;3.80;99.90;;;;;;2106151;28;20145;-69
2021/12/29 05:23:26;;;;;;;31.98;20.60;;;3.80;99.90;;;;;;2106051;28;20503;-70
2021/12/29 05:24:27;;;;;;;31.95;21.13;;;3.90;99.90;;;;;;2106010;28;20097;-70
2021/12/29 05:25:28;;;;;;;35.70;23.83;;;3.90;99.90;;;;;;2106026;28;20085;-70
2021/12/29 05:26:28;;;;;;;33.85;22.92;;;3.80;99.90;;;;;;2106049;28;20106;-70